sensor_id;sensor_type;location;lat;lon;timestamp;P1;durP1;ratioP1;P2;durP2;ratioP2
10088;SDS011;51898;49.864;8.550;2023-04-23T00:00:33;6.90;;;5.97;;
10088;SDS011;51898;49.864;8.550;2023-04-23T00:03:36;8.83;;;6.93;;
10088;SDS011;51898;49.864;8.550;2023-04-23T00:06:41;7.60;;;6.80;;
10088;SDS011;51898;49.864;8.550;2023-04-23T00:09:43;9.60;;;6.60;;
10088;SDS011;51898;49.864;8.550;2023-04-23T00:12:45;7.33;;;6.50;;
10088;SDS011;51898;49.864;8.550;2023-04-23T00:15:48;8.90;;;5.93;;
10088;SDS011;51898;49.864;8.550;2023-04-23T00:18:50;10.30;;;6.77;;
10088;SDS011;51898;49.864;8.550;2023-04-23T00:21:51;9.07;;;6.70;;
10088;SDS011;51898;49.864;8.550;2023-04-23T00:24:53;9.20;;;6.47;;
10088;SDS011;51898;49.864;8.550;2023-04-23T00:27:55;8.57;;;6.60;;
10088;SDS011;51898;49.864;8.550;2023-04-23T00:30:56;8.30;;;6.80;;
10088;SDS011;51898;49.864;8.550;2023-04-23T00:33:58;8.60;;;7.07;;
10088;SDS011;51898;49.864;8.550;2023-04-23T00:37:00;8.90;;;7.20;;
10088;SDS011;51898;49.864;8.550;2023-04-23T00:40:06;8.43;;;6.73;;
10088;SDS011;51898;49.864;8.550;2023-04-23T00:43:08;9.77;;;7.70;;
10088;SDS011;51898;49.864;8.550;2023-04-23T00:46:11;9.83;;;7.60;;
10088;SDS011;51898;49.864;8.550;2023-04-23T00:49:13;13.57;;;8.00;;
10088;SDS011;51898;49.864;8.550;2023-04-23T00:52:16;11.50;;;8.10;;
10088;SDS011;51898;49.864;8.550;2023-04-23T00:55:17;12.30;;;8.00;;
10088;SDS011;51898;49.864;8.550;2023-04-23T00:58:21;11.53;;;8.30;;
10088;SDS011;51898;49.864;8.550;2023-04-23T01:04:36;11.57;;;8.20;;
10088;SDS011;51898;49.864;8.550;2023-04-23T01:07:40;11.30;;;8.10;;
10088;SDS011;51898;49.864;8.550;2023-04-23T01:10:44;12.63;;;9.30;;
10088;SDS011;51898;49.864;8.550;2023-04-23T01:13:47;9.93;;;7.90;;
10088;SDS011;51898;49.864;8.550;2023-04-23T01:16:48;12.13;;;9.00;;
10088;SDS011;51898;49.864;8.550;2023-04-23T01:19:50;12.33;;;8.40;;
10088;SDS011;51898;49.864;8.550;2023-04-23T01:22:52;16.80;;;10.30;;
10088;SDS011;51898;49.864;8.550;2023-04-23T01:25:54;10.77;;;9.60;;
10088;SDS011;51898;49.864;8.550;2023-04-23T01:28:56;12.20;;;10.53;;
10088;SDS011;51898;49.864;8.550;2023-04-23T01:31:58;14.33;;;9.77;;
10088;SDS011;51898;49.864;8.550;2023-04-23T01:35:00;12.63;;;10.17;;
10088;SDS011;51898;49.864;8.550;2023-04-23T01:38:04;13.87;;;10.10;;
10088;SDS011;51898;49.864;8.550;2023-04-23T01:41:10;12.83;;;9.03;;
10088;SDS011;51898;49.864;8.550;2023-04-23T01:44:12;14.03;;;9.60;;
10088;SDS011;51898;49.864;8.550;2023-04-23T01:47:13;12.33;;;9.80;;
10088;SDS011;51898;49.864;8.550;2023-04-23T01:50:16;13.33;;;9.80;;
10088;SDS011;51898;49.864;8.550;2023-04-23T01:53:17;15.33;;;11.07;;
10088;SDS011;51898;49.864;8.550;2023-04-23T01:56:19;13.33;;;10.20;;
10088;SDS011;51898;49.864;8.550;2023-04-23T01:59:25;12.97;;;10.60;;
10088;SDS011;51898;49.864;8.550;2023-04-23T02:02:27;12.23;;;10.33;;
10088;SDS011;51898;49.864;8.550;2023-04-23T02:05:29;13.90;;;9.70;;
10088;SDS011;51898;49.864;8.550;2023-04-23T02:08:33;11.83;;;10.03;;
10088;SDS011;51898;49.864;8.550;2023-04-23T02:11:34;12.00;;;10.07;;
10088;SDS011;51898;49.864;8.550;2023-04-23T02:14:36;13.20;;;9.90;;
10088;SDS011;51898;49.864;8.550;2023-04-23T02:17:38;10.70;;;9.50;;
10088;SDS011;51898;49.864;8.550;2023-04-23T02:20:40;12.60;;;9.90;;
10088;SDS011;51898;49.864;8.550;2023-04-23T02:23:42;10.80;;;9.60;;
10088;SDS011;51898;49.864;8.550;2023-04-23T02:26:43;13.67;;;9.77;;
10088;SDS011;51898;49.864;8.550;2023-04-23T02:29:45;11.83;;;9.80;;
10088;SDS011;51898;49.864;8.550;2023-04-23T02:32:47;11.37;;;9.50;;
10088;SDS011;51898;49.864;8.550;2023-04-23T02:35:50;11.60;;;9.00;;
10088;SDS011;51898;49.864;8.550;2023-04-23T02:38:52;13.87;;;9.80;;
10088;SDS011;51898;49.864;8.550;2023-04-23T02:41:53;10.03;;;8.97;;
10088;SDS011;51898;49.864;8.550;2023-04-23T02:44:56;10.03;;;8.83;;
10088;SDS011;51898;49.864;8.550;2023-04-23T02:47:58;11.70;;;9.30;;
10088;SDS011;51898;49.864;8.550;2023-04-23T02:50:59;11.00;;;8.60;;
10088;SDS011;51898;49.864;8.550;2023-04-23T02:54:03;11.30;;;9.17;;
10088;SDS011;51898;49.864;8.550;2023-04-23T02:57:04;10.40;;;9.27;;
10088;SDS011;51898;49.864;8.550;2023-04-23T03:00:06;10.20;;;9.00;;
10088;SDS011;51898;49.864;8.550;2023-04-23T03:03:09;11.87;;;9.77;;
10088;SDS011;51898;49.864;8.550;2023-04-23T03:06:12;11.50;;;8.77;;
10088;SDS011;51898;49.864;8.550;2023-04-23T03:09:14;11.80;;;9.10;;
10088;SDS011;51898;49.864;8.550;2023-04-23T03:12:16;10.60;;;9.27;;
10088;SDS011;51898;49.864;8.550;2023-04-23T03:15:18;10.10;;;8.87;;
10088;SDS011;51898;49.864;8.550;2023-04-23T03:18:21;10.90;;;8.10;;
10088;SDS011;51898;49.864;8.550;2023-04-23T03:21:23;8.63;;;7.73;;
10088;SDS011;51898;49.864;8.550;2023-04-23T03:24:24;9.90;;;8.90;;
10088;SDS011;51898;49.864;8.550;2023-04-23T03:27:27;13.53;;;8.67;;
10088;SDS011;51898;49.864;8.550;2023-04-23T03:30:29;11.97;;;9.07;;
10088;SDS011;51898;49.864;8.550;2023-04-23T03:33:31;10.23;;;8.53;;
10088;SDS011;51898;49.864;8.550;2023-04-23T03:36:33;10.47;;;9.03;;
10088;SDS011;51898;49.864;8.550;2023-04-23T03:39:34;12.20;;;8.70;;
10088;SDS011;51898;49.864;8.550;2023-04-23T03:42:36;15.50;;;9.00;;
10088;SDS011;51898;49.864;8.550;2023-04-23T03:45:38;10.93;;;9.00;;
10088;SDS011;51898;49.864;8.550;2023-04-23T03:48:40;11.73;;;9.10;;
10088;SDS011;51898;49.864;8.550;2023-04-23T03:51:41;11.50;;;9.53;;
10088;SDS011;51898;49.864;8.550;2023-04-23T03:54:43;13.93;;;9.40;;
10088;SDS011;51898;49.864;8.550;2023-04-23T03:57:44;11.40;;;9.57;;
10088;SDS011;51898;49.864;8.550;2023-04-23T04:00:46;12.30;;;9.60;;
10088;SDS011;51898;49.864;8.550;2023-04-23T04:03:48;10.73;;;8.77;;
10088;SDS011;51898;49.864;8.550;2023-04-23T04:06:50;11.57;;;9.30;;
10088;SDS011;51898;49.864;8.550;2023-04-23T04:09:51;14.17;;;10.13;;
10088;SDS011;51898;49.864;8.550;2023-04-23T04:12:53;12.43;;;9.67;;
10088;SDS011;51898;49.864;8.550;2023-04-23T04:15:55;12.37;;;10.53;;
10088;SDS011;51898;49.864;8.550;2023-04-23T04:18:57;12.77;;;10.00;;
10088;SDS011;51898;49.864;8.550;2023-04-23T04:21:59;12.77;;;10.43;;
10088;SDS011;51898;49.864;8.550;2023-04-23T04:25:03;15.23;;;11.23;;
10088;SDS011;51898;49.864;8.550;2023-04-23T04:28:06;16.40;;;11.40;;
10088;SDS011;51898;49.864;8.550;2023-04-23T04:31:12;15.00;;;11.57;;
10088;SDS011;51898;49.864;8.550;2023-04-23T04:34:16;11.70;;;10.40;;
10088;SDS011;51898;49.864;8.550;2023-04-23T04:37:18;14.67;;;10.93;;
10088;SDS011;51898;49.864;8.550;2023-04-23T04:40:21;15.77;;;12.20;;
10088;SDS011;51898;49.864;8.550;2023-04-23T04:43:23;17.43;;;13.60;;
10088;SDS011;51898;49.864;8.550;2023-04-23T04:46:24;15.27;;;11.80;;
10088;SDS011;51898;49.864;8.550;2023-04-23T04:49:29;16.57;;;12.70;;
10088;SDS011;51898;49.864;8.550;2023-04-23T04:52:31;18.63;;;13.67;;
10088;SDS011;51898;49.864;8.550;2023-04-23T04:55:32;16.63;;;12.37;;
10088;SDS011;51898;49.864;8.550;2023-04-23T04:58:34;14.37;;;11.67;;
10088;SDS011;51898;49.864;8.550;2023-04-23T05:01:36;13.53;;;12.07;;
10088;SDS011;51898;49.864;8.550;2023-04-23T05:04:38;14.70;;;10.27;;
10088;SDS011;51898;49.864;8.550;2023-04-23T05:07:40;13.07;;;11.60;;
10088;SDS011;51898;49.864;8.550;2023-04-23T05:10:42;16.60;;;11.23;;
10088;SDS011;51898;49.864;8.550;2023-04-23T05:13:44;16.57;;;11.87;;
10088;SDS011;51898;49.864;8.550;2023-04-23T05:16:47;15.97;;;11.70;;
10088;SDS011;51898;49.864;8.550;2023-04-23T05:19:48;12.30;;;9.50;;
10088;SDS011;51898;49.864;8.550;2023-04-23T05:22:51;13.10;;;9.43;;
10088;SDS011;51898;49.864;8.550;2023-04-23T05:25:52;12.37;;;9.70;;
10088;SDS011;51898;49.864;8.550;2023-04-23T05:28:56;11.70;;;9.30;;
10088;SDS011;51898;49.864;8.550;2023-04-23T05:31:57;13.23;;;9.60;;
10088;SDS011;51898;49.864;8.550;2023-04-23T05:34:59;12.23;;;9.70;;
10088;SDS011;51898;49.864;8.550;2023-04-23T05:38:03;10.10;;;9.00;;
10088;SDS011;51898;49.864;8.550;2023-04-23T05:41:06;10.37;;;8.63;;
10088;SDS011;51898;49.864;8.550;2023-04-23T05:44:08;10.67;;;9.00;;
10088;SDS011;51898;49.864;8.550;2023-04-23T05:47:10;12.10;;;10.20;;
10088;SDS011;51898;49.864;8.550;2023-04-23T05:50:13;12.13;;;10.10;;
10088;SDS011;51898;49.864;8.550;2023-04-23T05:53:14;10.10;;;9.10;;
10088;SDS011;51898;49.864;8.550;2023-04-23T05:56:16;12.80;;;9.83;;
10088;SDS011;51898;49.864;8.550;2023-04-23T05:59:18;8.30;;;7.30;;
10088;SDS011;51898;49.864;8.550;2023-04-23T06:02:22;9.30;;;8.40;;
10088;SDS011;51898;49.864;8.550;2023-04-23T06:05:25;9.37;;;7.40;;
10088;SDS011;51898;49.864;8.550;2023-04-23T06:08:27;9.47;;;7.20;;
10088;SDS011;51898;49.864;8.550;2023-04-23T06:11:29;11.57;;;7.73;;
10088;SDS011;51898;49.864;8.550;2023-04-23T06:14:32;7.80;;;7.03;;
10088;SDS011;51898;49.864;8.550;2023-04-23T06:17:34;7.73;;;6.47;;
10088;SDS011;51898;49.864;8.550;2023-04-23T06:20:36;7.90;;;6.60;;
10088;SDS011;51898;49.864;8.550;2023-04-23T06:23:38;8.67;;;6.57;;
10088;SDS011;51898;49.864;8.550;2023-04-23T06:26:39;7.13;;;6.43;;
10088;SDS011;51898;49.864;8.550;2023-04-23T06:29:41;8.37;;;6.37;;
10088;SDS011;51898;49.864;8.550;2023-04-23T06:32:43;8.00;;;6.33;;
10088;SDS011;51898;49.864;8.550;2023-04-23T06:35:44;7.03;;;5.93;;
10088;SDS011;51898;49.864;8.550;2023-04-23T06:38:47;8.10;;;7.30;;
10088;SDS011;51898;49.864;8.550;2023-04-23T06:41:49;6.50;;;5.90;;
10088;SDS011;51898;49.864;8.550;2023-04-23T06:44:50;7.00;;;6.30;;
10088;SDS011;51898;49.864;8.550;2023-04-23T06:47:52;6.60;;;5.90;;
10088;SDS011;51898;49.864;8.550;2023-04-23T06:50:54;6.63;;;5.93;;
10088;SDS011;51898;49.864;8.550;2023-04-23T06:53:55;7.00;;;5.93;;
10088;SDS011;51898;49.864;8.550;2023-04-23T06:56:57;6.27;;;5.67;;
10088;SDS011;51898;49.864;8.550;2023-04-23T06:59:58;8.63;;;5.37;;
10088;SDS011;51898;49.864;8.550;2023-04-23T07:03:00;6.97;;;6.27;;
10088;SDS011;51898;49.864;8.550;2023-04-23T07:06:02;6.20;;;5.60;;
10088;SDS011;51898;49.864;8.550;2023-04-23T07:09:04;6.40;;;5.47;;
10088;SDS011;51898;49.864;8.550;2023-04-23T07:12:06;6.47;;;5.43;;
10088;SDS011;51898;49.864;8.550;2023-04-23T07:15:08;5.50;;;5.00;;
10088;SDS011;51898;49.864;8.550;2023-04-23T07:18:10;6.40;;;5.67;;
10088;SDS011;51898;49.864;8.550;2023-04-23T07:21:11;6.10;;;4.90;;
10088;SDS011;51898;49.864;8.550;2023-04-23T07:24:13;7.17;;;5.90;;
10088;SDS011;51898;49.864;8.550;2023-04-23T07:27:15;10.20;;;5.37;;
10088;SDS011;51898;49.864;8.550;2023-04-23T07:30:17;5.67;;;5.17;;
10088;SDS011;51898;49.864;8.550;2023-04-23T07:33:19;9.17;;;5.90;;
10088;SDS011;51898;49.864;8.550;2023-04-23T07:36:21;8.13;;;7.30;;
10088;SDS011;51898;49.864;8.550;2023-04-23T07:39:23;7.83;;;7.10;;
10088;SDS011;51898;49.864;8.550;2023-04-23T07:42:24;8.20;;;6.10;;
10088;SDS011;51898;49.864;8.550;2023-04-23T07:45:26;6.60;;;5.63;;
10088;SDS011;51898;49.864;8.550;2023-04-23T07:48:28;10.03;;;6.80;;
10088;SDS011;51898;49.864;8.550;2023-04-23T07:51:29;6.03;;;5.40;;
10088;SDS011;51898;49.864;8.550;2023-04-23T07:54:31;5.87;;;5.30;;
10088;SDS011;51898;49.864;8.550;2023-04-23T07:57:33;7.40;;;6.70;;
10088;SDS011;51898;49.864;8.550;2023-04-23T08:00:35;9.40;;;6.50;;
10088;SDS011;51898;49.864;8.550;2023-04-23T08:03:36;7.30;;;6.10;;
10088;SDS011;51898;49.864;8.550;2023-04-23T08:06:38;6.40;;;5.60;;
10088;SDS011;51898;49.864;8.550;2023-04-23T08:09:40;5.83;;;5.17;;
10088;SDS011;51898;49.864;8.550;2023-04-23T08:12:42;7.20;;;5.67;;
10088;SDS011;51898;49.864;8.550;2023-04-23T08:15:44;7.20;;;5.00;;
10088;SDS011;51898;49.864;8.550;2023-04-23T08:18:46;6.93;;;6.33;;
10088;SDS011;51898;49.864;8.550;2023-04-23T08:22:05;6.00;;;5.40;;
10088;SDS011;51898;49.864;8.550;2023-04-23T08:25:06;6.53;;;6.03;;
10088;SDS011;51898;49.864;8.550;2023-04-23T08:28:09;6.47;;;5.80;;
10088;SDS011;51898;49.864;8.550;2023-04-23T08:31:11;6.90;;;6.37;;
10088;SDS011;51898;49.864;8.550;2023-04-23T08:34:27;6.23;;;5.63;;
10088;SDS011;51898;49.864;8.550;2023-04-23T08:37:28;8.73;;;6.10;;
10088;SDS011;51898;49.864;8.550;2023-04-23T08:40:31;7.47;;;5.93;;
10088;SDS011;51898;49.864;8.550;2023-04-23T08:43:41;6.87;;;6.13;;
10088;SDS011;51898;49.864;8.550;2023-04-23T08:46:47;5.93;;;5.43;;
10088;SDS011;51898;49.864;8.550;2023-04-23T08:49:49;6.50;;;5.90;;
10088;SDS011;51898;49.864;8.550;2023-04-23T08:52:55;6.20;;;5.40;;
10088;SDS011;51898;49.864;8.550;2023-04-23T08:55:58;5.80;;;5.30;;
10088;SDS011;51898;49.864;8.550;2023-04-23T08:59:00;6.73;;;5.67;;
10088;SDS011;51898;49.864;8.550;2023-04-23T09:02:04;5.17;;;4.67;;
10088;SDS011;51898;49.864;8.550;2023-04-23T09:05:10;5.80;;;5.30;;
10088;SDS011;51898;49.864;8.550;2023-04-23T09:08:12;5.97;;;5.47;;
10088;SDS011;51898;49.864;8.550;2023-04-23T09:11:13;6.03;;;4.53;;
10088;SDS011;51898;49.864;8.550;2023-04-23T09:14:17;5.13;;;4.63;;
10088;SDS011;51898;49.864;8.550;2023-04-23T09:17:19;5.00;;;4.60;;
10088;SDS011;51898;49.864;8.550;2023-04-23T09:20:21;5.33;;;4.47;;
10088;SDS011;51898;49.864;8.550;2023-04-23T09:23:22;5.37;;;4.50;;
10088;SDS011;51898;49.864;8.550;2023-04-23T09:26:24;4.60;;;4.13;;
10088;SDS011;51898;49.864;8.550;2023-04-23T09:29:27;4.67;;;4.27;;
10088;SDS011;51898;49.864;8.550;2023-04-23T09:32:31;5.13;;;4.63;;
10088;SDS011;51898;49.864;8.550;2023-04-23T09:35:34;5.83;;;5.33;;
10088;SDS011;51898;49.864;8.550;2023-04-23T09:38:40;5.40;;;4.90;;
10088;SDS011;51898;49.864;8.550;2023-04-23T09:41:41;5.20;;;4.57;;
10088;SDS011;51898;49.864;8.550;2023-04-23T09:44:43;5.13;;;4.47;;
10088;SDS011;51898;49.864;8.550;2023-04-23T09:47:52;5.80;;;5.37;;
10088;SDS011;51898;49.864;8.550;2023-04-23T09:50:57;5.60;;;5.00;;
10088;SDS011;51898;49.864;8.550;2023-04-23T09:54:02;5.40;;;4.03;;
10088;SDS011;51898;49.864;8.550;2023-04-23T09:57:04;4.30;;;4.00;;
10088;SDS011;51898;49.864;8.550;2023-04-23T10:03:27;6.03;;;4.30;;
10088;SDS011;51898;49.864;8.550;2023-04-23T10:06:29;4.73;;;4.33;;
10088;SDS011;51898;49.864;8.550;2023-04-23T10:09:50;4.97;;;4.47;;
10088;SDS011;51898;49.864;8.550;2023-04-23T10:12:52;4.57;;;4.27;;
10088;SDS011;51898;49.864;8.550;2023-04-23T10:15:56;4.20;;;3.90;;
10088;SDS011;51898;49.864;8.550;2023-04-23T10:19:14;4.43;;;4.03;;
10088;SDS011;51898;49.864;8.550;2023-04-23T10:22:19;3.90;;;3.50;;
10088;SDS011;51898;49.864;8.550;2023-04-23T10:25:22;4.50;;;4.10;;
10088;SDS011;51898;49.864;8.550;2023-04-23T10:28:26;4.20;;;3.90;;
10088;SDS011;51898;49.864;8.550;2023-04-23T10:31:32;4.67;;;4.30;;
10088;SDS011;51898;49.864;8.550;2023-04-23T10:34:34;4.30;;;3.90;;
10088;SDS011;51898;49.864;8.550;2023-04-23T10:37:36;4.97;;;4.53;;
10088;SDS011;51898;49.864;8.550;2023-04-23T10:40:38;3.80;;;3.50;;
10088;SDS011;51898;49.864;8.550;2023-04-23T10:43:43;4.00;;;3.70;;
10088;SDS011;51898;49.864;8.550;2023-04-23T10:46:52;4.43;;;4.03;;
10088;SDS011;51898;49.864;8.550;2023-04-23T10:49:56;8.00;;;4.13;;
10088;SDS011;51898;49.864;8.550;2023-04-23T10:52:58;15.87;;;4.20;;
10088;SDS011;51898;49.864;8.550;2023-04-23T10:56:06;4.17;;;3.77;;
10088;SDS011;51898;49.864;8.550;2023-04-23T10:59:19;4.20;;;3.90;;
10088;SDS011;51898;49.864;8.550;2023-04-23T11:02:21;4.03;;;3.70;;
10088;SDS011;51898;49.864;8.550;2023-04-23T11:05:25;4.17;;;3.60;;
10088;SDS011;51898;49.864;8.550;2023-04-23T11:08:29;4.87;;;4.17;;
10088;SDS011;51898;49.864;8.550;2023-04-23T11:11:40;3.40;;;3.20;;
10088;SDS011;51898;49.864;8.550;2023-04-23T11:14:46;4.20;;;3.90;;
10088;SDS011;51898;49.864;8.550;2023-04-23T11:20:55;5.33;;;3.70;;
10088;SDS011;51898;49.864;8.550;2023-04-23T11:23:58;5.50;;;3.77;;
10088;SDS011;51898;49.864;8.550;2023-04-23T11:27:05;5.07;;;4.67;;
10088;SDS011;51898;49.864;8.550;2023-04-23T11:30:12;5.90;;;3.90;;
10088;SDS011;51898;49.864;8.550;2023-04-23T11:33:18;4.67;;;3.60;;
10088;SDS011;51898;49.864;8.550;2023-04-23T11:36:20;5.97;;;3.97;;
10088;SDS011;51898;49.864;8.550;2023-04-23T11:39:23;3.73;;;3.43;;
10088;SDS011;51898;49.864;8.550;2023-04-23T11:42:26;4.17;;;3.70;;
10088;SDS011;51898;49.864;8.550;2023-04-23T11:45:28;4.60;;;4.00;;
10088;SDS011;51898;49.864;8.550;2023-04-23T11:48:30;5.40;;;4.30;;
10088;SDS011;51898;49.864;8.550;2023-04-23T11:51:32;4.53;;;4.13;;
10088;SDS011;51898;49.864;8.550;2023-04-23T11:54:34;3.90;;;3.60;;
10088;SDS011;51898;49.864;8.550;2023-04-23T11:57:40;3.50;;;3.20;;
10088;SDS011;51898;49.864;8.550;2023-04-23T12:00:43;6.23;;;4.30;;
10088;SDS011;51898;49.864;8.550;2023-04-23T12:03:47;3.97;;;3.60;;
10088;SDS011;51898;49.864;8.550;2023-04-23T12:06:49;4.53;;;3.50;;
10088;SDS011;51898;49.864;8.550;2023-04-23T12:09:52;5.53;;;3.40;;
10088;SDS011;51898;49.864;8.550;2023-04-23T12:13:00;3.90;;;3.60;;
10088;SDS011;51898;49.864;8.550;2023-04-23T12:16:03;3.33;;;3.13;;
10088;SDS011;51898;49.864;8.550;2023-04-23T12:19:12;5.33;;;3.93;;
10088;SDS011;51898;49.864;8.550;2023-04-23T12:22:19;4.00;;;3.60;;
10088;SDS011;51898;49.864;8.550;2023-04-23T12:25:27;3.80;;;3.50;;
10088;SDS011;51898;49.864;8.550;2023-04-23T12:28:29;4.80;;;3.30;;
10088;SDS011;51898;49.864;8.550;2023-04-23T12:31:31;4.10;;;3.80;;
10088;SDS011;51898;49.864;8.550;2023-04-23T12:34:33;2.90;;;2.70;;
10088;SDS011;51898;49.864;8.550;2023-04-23T12:37:35;5.07;;;3.83;;
10088;SDS011;51898;49.864;8.550;2023-04-23T12:40:40;5.70;;;3.37;;
10088;SDS011;51898;49.864;8.550;2023-04-23T12:43:41;3.80;;;3.10;;
10088;SDS011;51898;49.864;8.550;2023-04-23T12:46:49;4.13;;;3.60;;
10088;SDS011;51898;49.864;8.550;2023-04-23T12:49:58;3.60;;;3.30;;
10088;SDS011;51898;49.864;8.550;2023-04-23T12:53:01;3.83;;;3.53;;
10088;SDS011;51898;49.864;8.550;2023-04-23T12:56:03;3.50;;;3.30;;
10088;SDS011;51898;49.864;8.550;2023-04-23T12:59:05;3.23;;;3.03;;
10088;SDS011;51898;49.864;8.550;2023-04-23T13:02:07;3.43;;;3.23;;
10088;SDS011;51898;49.864;8.550;2023-04-23T13:05:10;3.27;;;3.07;;
10088;SDS011;51898;49.864;8.550;2023-04-23T13:08:12;3.30;;;3.10;;
10088;SDS011;51898;49.864;8.550;2023-04-23T13:11:13;3.27;;;2.97;;
10088;SDS011;51898;49.864;8.550;2023-04-23T13:14:15;4.97;;;3.27;;
10088;SDS011;51898;49.864;8.550;2023-04-23T13:17:17;3.30;;;3.00;;
10088;SDS011;51898;49.864;8.550;2023-04-23T13:20:19;3.90;;;3.03;;
10088;SDS011;51898;49.864;8.550;2023-04-23T13:23:21;6.50;;;3.20;;
10088;SDS011;51898;49.864;8.550;2023-04-23T13:26:23;3.00;;;2.80;;
10088;SDS011;51898;49.864;8.550;2023-04-23T13:29:24;3.00;;;2.80;;
10088;SDS011;51898;49.864;8.550;2023-04-23T13:32:29;3.17;;;2.87;;
10088;SDS011;51898;49.864;8.550;2023-04-23T13:35:35;3.40;;;3.20;;
10088;SDS011;51898;49.864;8.550;2023-04-23T13:38:37;3.20;;;2.97;;
10088;SDS011;51898;49.864;8.550;2023-04-23T13:41:39;2.93;;;2.73;;
10088;SDS011;51898;49.864;8.550;2023-04-23T13:44:41;4.07;;;3.37;;
10088;SDS011;51898;49.864;8.550;2023-04-23T13:47:43;3.40;;;3.20;;
10088;SDS011;51898;49.864;8.550;2023-04-23T13:50:45;3.40;;;3.20;;
10088;SDS011;51898;49.864;8.550;2023-04-23T13:53:47;5.10;;;3.40;;
10088;SDS011;51898;49.864;8.550;2023-04-23T13:56:48;3.20;;;3.00;;
10088;SDS011;51898;49.864;8.550;2023-04-23T13:59:50;3.27;;;3.07;;
10088;SDS011;51898;49.864;8.550;2023-04-23T14:02:52;3.50;;;3.20;;
10088;SDS011;51898;49.864;8.550;2023-04-23T14:05:53;3.33;;;3.10;;
10088;SDS011;51898;49.864;8.550;2023-04-23T14:08:55;3.33;;;3.13;;
10088;SDS011;51898;49.864;8.550;2023-04-23T14:11:57;3.20;;;3.00;;
10088;SDS011;51898;49.864;8.550;2023-04-23T14:14:58;3.70;;;3.47;;
10088;SDS011;51898;49.864;8.550;2023-04-23T14:18:00;3.00;;;2.80;;
10088;SDS011;51898;49.864;8.550;2023-04-23T14:21:02;3.87;;;2.63;;
10088;SDS011;51898;49.864;8.550;2023-04-23T14:24:07;3.93;;;3.07;;
10088;SDS011;51898;49.864;8.550;2023-04-23T14:27:17;2.83;;;2.73;;
10088;SDS011;51898;49.864;8.550;2023-04-23T14:30:19;4.07;;;2.90;;
10088;SDS011;51898;49.864;8.550;2023-04-23T14:33:21;3.33;;;3.13;;
10088;SDS011;51898;49.864;8.550;2023-04-23T14:36:23;3.50;;;3.20;;
10088;SDS011;51898;49.864;8.550;2023-04-23T14:39:25;3.80;;;3.40;;
10088;SDS011;51898;49.864;8.550;2023-04-23T14:42:27;3.60;;;3.30;;
10088;SDS011;51898;49.864;8.550;2023-04-23T14:45:29;2.87;;;2.77;;
10088;SDS011;51898;49.864;8.550;2023-04-23T14:48:32;3.43;;;3.13;;
10088;SDS011;51898;49.864;8.550;2023-04-23T14:51:34;4.00;;;3.70;;
10088;SDS011;51898;49.864;8.550;2023-04-23T14:54:37;3.40;;;3.20;;
10088;SDS011;51898;49.864;8.550;2023-04-23T14:57:39;3.97;;;3.67;;
10088;SDS011;51898;49.864;8.550;2023-04-23T15:00:41;5.40;;;5.00;;
10088;SDS011;51898;49.864;8.550;2023-04-23T15:03:42;5.27;;;3.60;;
10088;SDS011;51898;49.864;8.550;2023-04-23T15:06:46;3.50;;;3.30;;
10088;SDS011;51898;49.864;8.550;2023-04-23T15:09:48;3.00;;;2.80;;
10088;SDS011;51898;49.864;8.550;2023-04-23T15:12:53;2.90;;;2.70;;
10088;SDS011;51898;49.864;8.550;2023-04-23T15:16:02;3.03;;;2.83;;
10088;SDS011;51898;49.864;8.550;2023-04-23T15:19:09;3.23;;;3.03;;
10088;SDS011;51898;49.864;8.550;2023-04-23T15:22:11;3.60;;;3.30;;
10088;SDS011;51898;49.864;8.550;2023-04-23T15:25:12;3.30;;;3.10;;
10088;SDS011;51898;49.864;8.550;2023-04-23T15:28:14;5.23;;;4.50;;
10088;SDS011;51898;49.864;8.550;2023-04-23T15:31:16;3.03;;;2.77;;
10088;SDS011;51898;49.864;8.550;2023-04-23T15:34:18;2.93;;;2.70;;
10088;SDS011;51898;49.864;8.550;2023-04-23T15:37:19;3.90;;;3.60;;
10088;SDS011;51898;49.864;8.550;2023-04-23T15:40:23;3.67;;;3.47;;
10088;SDS011;51898;49.864;8.550;2023-04-23T15:43:26;3.00;;;2.80;;
10088;SDS011;51898;49.864;8.550;2023-04-23T15:46:28;2.93;;;2.70;;
10088;SDS011;51898;49.864;8.550;2023-04-23T15:49:29;3.33;;;3.03;;
10088;SDS011;51898;49.864;8.550;2023-04-23T15:52:31;3.00;;;2.80;;
10088;SDS011;51898;49.864;8.550;2023-04-23T15:55:33;2.70;;;2.60;;
10088;SDS011;51898;49.864;8.550;2023-04-23T15:58:35;3.10;;;2.90;;
10088;SDS011;51898;49.864;8.550;2023-04-23T16:01:36;3.30;;;2.80;;
10088;SDS011;51898;49.864;8.550;2023-04-23T16:04:39;3.60;;;3.40;;
10088;SDS011;51898;49.864;8.550;2023-04-23T16:07:42;3.40;;;3.20;;
10088;SDS011;51898;49.864;8.550;2023-04-23T16:10:44;3.10;;;2.90;;
10088;SDS011;51898;49.864;8.550;2023-04-23T16:13:46;2.30;;;2.20;;
10088;SDS011;51898;49.864;8.550;2023-04-23T16:16:48;3.77;;;2.63;;
10088;SDS011;51898;49.864;8.550;2023-04-23T16:19:49;2.40;;;2.30;;
10088;SDS011;51898;49.864;8.550;2023-04-23T16:22:51;3.27;;;2.17;;
10088;SDS011;51898;49.864;8.550;2023-04-23T16:25:52;2.17;;;2.07;;
10088;SDS011;51898;49.864;8.550;2023-04-23T16:28:55;2.30;;;2.10;;
10088;SDS011;51898;49.864;8.550;2023-04-23T16:32:17;1.97;;;1.87;;
10088;SDS011;51898;49.864;8.550;2023-04-23T16:35:18;2.30;;;1.70;;
10088;SDS011;51898;49.864;8.550;2023-04-23T16:38:20;2.83;;;1.63;;
10088;SDS011;51898;49.864;8.550;2023-04-23T16:41:22;1.63;;;1.53;;
10088;SDS011;51898;49.864;8.550;2023-04-23T16:44:24;2.37;;;2.10;;
10088;SDS011;51898;49.864;8.550;2023-04-23T16:47:25;2.53;;;1.60;;
10088;SDS011;51898;49.864;8.550;2023-04-23T16:50:27;3.10;;;1.97;;
10088;SDS011;51898;49.864;8.550;2023-04-23T16:53:29;2.43;;;1.27;;
10088;SDS011;51898;49.864;8.550;2023-04-23T16:56:31;3.00;;;1.80;;
10088;SDS011;51898;49.864;8.550;2023-04-23T16:59:34;2.90;;;1.70;;
10088;SDS011;51898;49.864;8.550;2023-04-23T17:02:35;1.70;;;1.60;;
10088;SDS011;51898;49.864;8.550;2023-04-23T17:05:38;2.60;;;1.70;;
10088;SDS011;51898;49.864;8.550;2023-04-23T17:08:40;1.67;;;1.57;;
10088;SDS011;51898;49.864;8.550;2023-04-23T17:11:42;2.03;;;1.77;;
10088;SDS011;51898;49.864;8.550;2023-04-23T17:14:44;2.50;;;1.50;;
10088;SDS011;51898;49.864;8.550;2023-04-23T17:17:45;1.40;;;1.30;;
10088;SDS011;51898;49.864;8.550;2023-04-23T17:20:47;1.80;;;1.70;;
10088;SDS011;51898;49.864;8.550;2023-04-23T17:23:49;19.90;;;2.10;;
10088;SDS011;51898;49.864;8.550;2023-04-23T17:26:51;1.73;;;1.50;;
10088;SDS011;51898;49.864;8.550;2023-04-23T17:29:52;1.77;;;1.43;;
10088;SDS011;51898;49.864;8.550;2023-04-23T17:32:54;2.00;;;1.80;;
10088;SDS011;51898;49.864;8.550;2023-04-23T17:35:55;1.67;;;1.57;;
10088;SDS011;51898;49.864;8.550;2023-04-23T17:38:57;1.70;;;1.57;;
10088;SDS011;51898;49.864;8.550;2023-04-23T17:41:59;1.70;;;1.60;;
10088;SDS011;51898;49.864;8.550;2023-04-23T17:45:02;3.07;;;1.70;;
10088;SDS011;51898;49.864;8.550;2023-04-23T17:48:04;2.40;;;1.53;;
10088;SDS011;51898;49.864;8.550;2023-04-23T17:51:06;2.13;;;2.00;;
10088;SDS011;51898;49.864;8.550;2023-04-23T17:54:08;2.37;;;1.97;;
10088;SDS011;51898;49.864;8.550;2023-04-23T17:57:10;2.00;;;1.90;;
10088;SDS011;51898;49.864;8.550;2023-04-23T18:00:11;2.50;;;1.90;;
10088;SDS011;51898;49.864;8.550;2023-04-23T18:03:15;2.00;;;1.90;;
10088;SDS011;51898;49.864;8.550;2023-04-23T18:06:18;2.37;;;1.97;;
10088;SDS011;51898;49.864;8.550;2023-04-23T18:09:20;5.73;;;2.40;;
10088;SDS011;51898;49.864;8.550;2023-04-23T18:12:22;2.17;;;1.97;;
10088;SDS011;51898;49.864;8.550;2023-04-23T18:15:24;2.80;;;2.50;;
10088;SDS011;51898;49.864;8.550;2023-04-23T18:18:26;6.30;;;2.77;;
10088;SDS011;51898;49.864;8.550;2023-04-23T18:21:27;2.60;;;2.40;;
10088;SDS011;51898;49.864;8.550;2023-04-23T18:24:29;3.23;;;2.37;;